createdAt,value
2018-02-08T00:00:42.128Z,98224.02
2018-02-08T00:03:11.963Z,98221.37
2018-02-08T00:05:41.792Z,98217.47
2018-02-08T00:08:11.636Z,98223.38
2018-02-08T00:10:41.590Z,98222.42
2018-02-08T00:13:11.188Z,98220.52
2018-02-08T00:15:41.004Z,98222.42
2018-02-08T00:18:10.830Z,98223.34
2018-02-08T00:20:40.690Z,98228.00
2018-02-08T00:23:10.541Z,98226.45
2018-02-08T00:25:40.405Z,98222.42
2018-02-08T00:28:10.203Z,98227.47
2018-02-08T00:30:40.053Z,98230.23
2018-02-08T00:33:09.893Z,98232.61
2018-02-08T00:35:39.754Z,98230.88
2018-02-08T00:38:09.583Z,98230.23
2018-02-08T00:40:39.438Z,98231.29
2018-02-08T00:43:09.281Z,98230.88
2018-02-08T00:45:39.081Z,98228.29
2018-02-08T00:48:08.897Z,98233.33
2018-02-08T00:50:38.733Z,98241.77
2018-02-08T00:53:08.872Z,98244.42
2018-02-08T00:55:38.723Z,98247.80
2018-02-08T00:58:08.534Z,98250.03
2018-02-08T01:00:38.216Z,98254.92
2018-02-08T01:03:08.040Z,98253.40
2018-02-08T01:05:37.912Z,98255.87
2018-02-08T01:08:07.744Z,98249.67
2018-02-08T01:10:37.585Z,98253.21
2018-02-08T01:13:07.408Z,98256.78
2018-02-08T01:15:37.222Z,98259.12
2018-02-08T01:18:07.033Z,98259.05
2018-02-08T01:20:36.609Z,98251.42
2018-02-08T01:23:06.435Z,98253.84
2018-02-08T01:25:36.283Z,98253.52
2018-02-08T01:28:06.177Z,98257.08
2018-02-08T01:30:36.004Z,98261.55
2018-02-08T01:33:05.816Z,98268.66
2018-02-08T01:35:35.637Z,98264.89
2018-02-08T01:38:05.441Z,98265.11
2018-02-08T01:40:35.288Z,98255.64
2018-02-08T01:43:05.127Z,98255.92
2018-02-08T01:45:34.945Z,98258.73
2018-02-08T01:48:04.753Z,98262.66
2018-02-08T01:50:34.781Z,98259.73
2018-02-08T01:53:04.636Z,98253.80
2018-02-08T01:55:34.460Z,98252.20
2018-02-08T01:58:04.290Z,98255.52
2018-02-08T02:00:34.141Z,98256.67
2018-02-08T02:03:03.965Z,98256.72
2018-02-08T02:05:33.788Z,98257.09
2018-02-08T02:08:03.614Z,98257.34
2018-02-08T02:10:33.438Z,98247.06
2018-02-08T02:13:02.946Z,98249.19
2018-02-08T02:15:32.803Z,98253.04
2018-02-08T02:18:02.604Z,98255.06
2018-02-08T02:20:32.437Z,98249.39
2018-02-08T02:23:02.269Z,98253.69
2018-02-08T02:25:32.123Z,98252.54
2018-02-08T02:28:02.139Z,98259.16
2018-02-08T02:30:32.001Z,98262.17
2018-02-08T02:33:01.824Z,98262.60
2018-02-08T02:35:31.654Z,98264.96
2018-02-08T02:38:01.471Z,98258.03
2018-02-08T02:40:31.275Z,98259.75
2018-02-08T02:43:01.090Z,98259.11
2018-02-08T02:45:30.962Z,98254.31
2018-02-08T02:48:01.175Z,98264.12
2018-02-08T02:50:31.720Z,98260.92
2018-02-08T02:53:01.893Z,98261.13
2018-02-08T02:55:31.736Z,98261.63
2018-02-08T02:58:01.562Z,98273.75
2018-02-08T03:00:31.401Z,98274.12
2018-02-08T03:03:01.204Z,98271.66
2018-02-08T03:05:31.769Z,98276.78
2018-02-08T03:08:01.590Z,98277.67
2018-02-08T03:10:31.442Z,98280.84
2018-02-08T03:13:01.275Z,98283.58
2018-02-08T03:15:31.124Z,98283.70
2018-02-08T03:18:00.670Z,98288.28
2018-02-08T03:20:30.514Z,98296.05
2018-02-08T03:23:00.123Z,98292.27
2018-02-08T03:25:29.984Z,98296.65
2018-02-08T03:27:59.819Z,98305.51
2018-02-08T03:30:30.366Z,98307.72
2018-02-08T03:33:00.196Z,98308.37
2018-02-08T03:35:30.017Z,98308.64
2018-02-08T03:37:59.826Z,98307.70
2018-02-08T03:40:29.655Z,98306.09
2018-02-08T03:42:59.510Z,98303.86
2018-02-08T03:45:29.331Z,98306.91
2018-02-08T03:47:59.163Z,98309.41
2018-02-08T03:50:29.002Z,98310.98
2018-02-08T03:52:58.819Z,98308.37
2018-02-08T03:55:28.684Z,98310.23
2018-02-08T03:57:58.494Z,98316.50
2018-02-08T04:00:28.345Z,98312.04
2018-02-08T04:02:58.188Z,98318.59
2018-02-08T04:05:28.010Z,98315.65
2018-02-08T04:07:57.841Z,98321.27
2018-02-08T04:10:27.681Z,98324.97
2018-02-08T04:12:57.482Z,98325.22
2018-02-08T04:15:27.313Z,98328.83
2018-02-08T04:17:57.119Z,98332.85
2018-02-08T04:20:27.423Z,98337.49
2018-02-08T04:22:57.248Z,98340.98
2018-02-08T04:25:27.053Z,98335.48
2018-02-08T04:27:56.871Z,98346.87
2018-02-08T04:30:26.752Z,98341.33
2018-02-08T04:32:56.563Z,98349.12
2018-02-08T04:35:26.405Z,98351.86
2018-02-08T04:37:56.224Z,98352.84
2018-02-08T04:40:36.966Z,98350.85
2018-02-08T04:43:17.773Z,98359.16
2018-02-08T04:45:58.469Z,98362.23
2018-02-08T04:48:28.045Z,98359.70
2018-02-08T04:50:57.590Z,98364.82
2018-02-08T04:53:27.421Z,98368.06
2018-02-08T04:55:57.243Z,98366.30
2018-02-08T04:58:27.089Z,98375.40
2018-02-08T05:00:56.904Z,98377.95
2018-02-08T05:03:26.734Z,98384.69
2018-02-08T05:05:56.554Z,98389.62
2018-02-08T05:08:26.372Z,98389.24
2018-02-08T05:10:56.305Z,98387.17
2018-02-08T05:13:26.178Z,98394.00
2018-02-08T05:15:56.110Z,98391.63
2018-02-08T05:18:25.932Z,98395.95
2018-02-08T05:20:55.737Z,98393.16
2018-02-08T05:23:30.052Z,98392.48
2018-02-08T05:26:00.166Z,98393.80
2018-02-08T05:28:30.019Z,98392.27
2018-02-08T05:31:00.050Z,98398.63
2018-02-08T05:33:29.904Z,98403.52
2018-02-08T05:35:59.768Z,98407.09
2018-02-08T05:38:29.604Z,98404.92
2018-02-08T05:40:59.481Z,98414.20
2018-02-08T05:43:29.292Z,98416.33
2018-02-08T05:45:59.220Z,98420.39
2018-02-08T05:48:29.140Z,98424.13
2018-02-08T05:50:59.028Z,98425.44
2018-02-08T05:53:28.872Z,98434.77
2018-02-08T05:55:58.750Z,98437.97
2018-02-08T05:58:29.386Z,98431.73
2018-02-08T06:00:59.198Z,98435.21
2018-02-08T06:03:29.560Z,98436.58
2018-02-08T06:05:59.456Z,98442.44
2018-02-08T06:08:29.863Z,98439.52
2018-02-08T06:10:59.728Z,98437.52
2018-02-08T06:13:32.150Z,98439.88
2018-02-08T06:16:03.151Z,98442.22
2018-02-08T06:18:33.175Z,98444.78
2018-02-08T06:21:03.289Z,98453.41
2018-02-08T06:23:33.026Z,98453.19
2018-02-08T06:26:02.862Z,98458.95
2018-02-08T06:28:34.390Z,98455.31
2018-02-08T06:31:05.351Z,98458.20
2018-02-08T06:33:35.327Z,98467.27
2018-02-08T06:38:59.810Z,98474.20
2018-02-08T06:41:31.836Z,98468.15
2018-02-08T06:44:04.582Z,98481.05
2018-02-08T06:46:35.650Z,98479.67
2018-02-08T06:49:06.323Z,98483.34
2018-02-08T06:51:37.203Z,98488.64
2018-02-08T06:56:42.151Z,98495.16
2018-02-08T07:01:47.487Z,98498.09
2018-02-08T07:04:17.585Z,98497.16
2018-02-08T07:06:47.650Z,98501.77
2018-02-08T07:12:54.233Z,98506.09
2018-02-08T07:15:24.137Z,98514.00
2018-02-08T07:17:53.823Z,98513.62
2018-02-08T07:20:24.259Z,98514.27
2018-02-08T07:22:54.150Z,98510.95
2018-02-08T07:25:23.769Z,98517.96
2018-02-08T07:27:53.735Z,98521.03
2018-02-08T07:30:23.662Z,98520.77
2018-02-08T07:32:57.666Z,98517.61
2018-02-08T07:35:28.406Z,98523.81
2018-02-08T07:37:58.515Z,98517.47
2018-02-08T07:40:28.542Z,98524.75
2018-02-08T07:42:59.368Z,98524.43
2018-02-08T07:45:29.315Z,98531.22
2018-02-08T07:48:00.446Z,98530.80
2018-02-08T07:50:30.217Z,98537.61
2018-02-08T07:53:00.044Z,98535.21
2018-02-08T07:55:30.054Z,98538.59
2018-02-08T07:58:00.333Z,98538.27
2018-02-08T08:00:30.334Z,98536.23
2018-02-08T08:03:00.375Z,98541.69
2018-02-08T08:05:30.366Z,98544.93
2018-02-08T08:08:00.277Z,98545.25
2018-02-08T08:10:30.195Z,98543.17
2018-02-08T08:13:00.172Z,98542.12
2018-02-08T08:15:30.172Z,98544.23
2018-02-08T08:18:00.137Z,98546.91
2018-02-08T08:20:30.193Z,98549.38
2018-02-08T08:25:37.693Z,98550.77
2018-02-08T08:28:07.615Z,98550.31
2018-02-08T08:30:37.558Z,98551.66
2018-02-08T08:33:08.146Z,98556.84
2018-02-08T08:35:38.073Z,98550.00
2018-02-08T08:38:13.044Z,98553.39
2018-02-08T08:41:08.537Z,98559.69
2018-02-08T08:43:43.858Z,98563.44
2018-02-08T08:48:57.798Z,98566.75
2018-02-08T08:51:27.780Z,98562.22
2018-02-08T08:53:57.799Z,98562.48
2018-02-08T08:56:27.766Z,98568.73
2018-02-08T08:58:57.994Z,98566.44
2018-02-08T09:01:28.038Z,98571.58
2018-02-08T09:04:02.120Z,98572.82
2018-02-08T09:06:33.438Z,98573.41
2018-02-08T09:09:03.155Z,98575.28
2018-02-08T09:16:43.549Z,98577.29
2018-02-08T09:19:15.504Z,98577.16
2018-02-08T09:24:18.964Z,98579.38
2018-02-08T09:26:48.866Z,98582.21
2018-02-08T09:29:18.865Z,98584.98
2018-02-08T09:31:48.720Z,98590.45
2018-02-08T09:34:18.610Z,98587.11
2018-02-08T09:36:48.523Z,98592.36
2018-02-08T09:39:18.473Z,98591.54
2018-02-08T09:41:49.037Z,98594.80
2018-02-08T09:44:20.285Z,98598.84
2018-02-08T09:46:50.161Z,98593.80
2018-02-08T09:49:20.372Z,98600.58
2018-02-08T09:51:50.546Z,98602.70
2018-02-08T09:54:21.081Z,98603.58
2018-02-08T09:56:50.996Z,98603.84
2018-02-08T09:59:21.115Z,98608.75
2018-02-08T10:01:52.324Z,98601.83
2018-02-08T10:04:22.336Z,98609.23
2018-02-08T10:06:53.239Z,98614.98
2018-02-08T10:09:23.198Z,98609.14
2018-02-08T10:11:52.904Z,98606.75
2018-02-08T10:14:22.835Z,98607.07
2018-02-08T10:16:53.238Z,98606.31
2018-02-08T10:19:23.154Z,98611.38
2018-02-08T10:21:54.650Z,98608.92
2018-02-08T10:24:26.585Z,98607.42
2018-02-08T10:26:56.444Z,98609.48
2018-02-08T10:29:26.441Z,98610.61
2018-02-08T10:31:57.860Z,98602.39
2018-02-08T10:34:27.818Z,98601.29
2018-02-08T10:36:57.904Z,98609.14
2018-02-08T10:39:27.804Z,98600.88
2018-02-08T10:44:34.909Z,98600.88
2018-02-08T10:47:04.671Z,98606.33
2018-02-08T10:49:35.451Z,98600.27
2018-02-08T10:52:10.465Z,98599.16
2018-02-08T10:54:40.513Z,98602.95
2018-02-08T10:57:10.582Z,98604.78
2018-02-08T10:59:41.636Z,98602.62
2018-02-08T11:02:12.783Z,98600.09
2018-02-08T11:04:53.050Z,98601.09
2018-02-08T11:07:23.815Z,98601.27
2018-02-08T11:20:26.061Z,98604.05
2018-02-08T11:22:56.118Z,98599.04
2018-02-08T11:25:27.044Z,98605.17
2018-02-08T11:28:00.295Z,98606.01
2018-02-08T11:33:31.326Z,98608.10
2018-02-08T11:36:01.709Z,98608.45
2018-02-08T11:38:32.470Z,98605.14
2018-02-08T11:41:10.684Z,98605.45
2018-02-08T11:43:48.374Z,98607.75
2018-02-08T11:46:21.769Z,98611.11
2018-02-08T11:59:35.588Z,98590.27
2018-02-08T12:02:05.880Z,98586.19
2018-02-08T12:37:54.753Z,98587.05
2018-02-08T13:03:36.628Z,98578.33
2018-02-08T13:08:51.613Z,98569.00
2018-02-08T13:11:24.280Z,98571.30
2018-02-08T13:30:52.826Z,98586.64
2018-02-08T13:39:18.609Z,98595.44
2018-02-08T13:42:37.361Z,98589.45
2018-02-08T13:47:54.432Z,98594.05
2018-02-08T13:50:46.470Z,98593.13
2018-02-08T13:53:21.700Z,98597.70
2018-02-08T13:58:56.462Z,98595.81
2018-02-08T14:04:06.671Z,98596.36
2018-02-08T14:06:43.273Z,98594.20
2018-02-08T14:09:13.659Z,98599.37
2018-02-08T14:19:46.929Z,98607.39
2018-02-08T14:22:16.873Z,98602.72
2018-02-08T14:24:47.399Z,98594.73
2018-02-08T14:27:17.883Z,98607.00
2018-02-08T14:29:47.901Z,98598.73
2018-02-08T14:32:17.642Z,98598.22
2018-02-08T14:34:47.615Z,98602.34
2018-02-08T14:37:18.664Z,98602.94
2018-02-08T14:39:49.271Z,98601.30
2018-02-08T14:42:19.477Z,98603.03
2018-02-08T14:44:49.369Z,98607.44
2018-02-08T14:47:19.713Z,98607.66
2018-02-08T14:49:49.689Z,98608.45
2018-02-08T14:52:19.742Z,98612.25
2018-02-08T14:54:49.757Z,98614.79
2018-02-08T14:57:20.173Z,98614.51
2018-02-08T14:59:50.545Z,98611.84
2018-02-08T15:02:21.355Z,98606.20
2018-02-08T15:04:51.428Z,98602.27
2018-02-08T15:07:21.865Z,98610.06
2018-02-08T15:09:52.038Z,98613.95
2018-02-08T15:12:22.061Z,98612.20
2018-02-08T15:14:51.995Z,98612.49
2018-02-08T15:17:24.723Z,98616.98
2018-02-08T15:19:55.637Z,98609.48
2018-02-08T15:22:25.997Z,98611.55
2018-02-08T15:24:55.778Z,98618.05
2018-02-08T15:27:27.733Z,98616.57
2018-02-08T15:30:00.214Z,98613.09
2018-02-08T15:32:30.236Z,98612.81
2018-02-08T15:34:59.868Z,98615.91
2018-02-08T15:37:29.772Z,98615.61
2018-02-08T15:40:00.806Z,98620.41
2018-02-08T15:42:30.526Z,98613.00
2018-02-08T15:45:01.864Z,98621.09
2018-02-08T15:47:32.919Z,98623.22
2018-02-08T15:50:03.128Z,98626.78
2018-02-08T15:52:33.383Z,98626.26
2018-02-08T15:55:06.750Z,98627.14
2018-02-08T15:57:38.543Z,98635.47
2018-02-08T16:00:08.663Z,98636.95
2018-02-08T16:02:38.752Z,98634.83
2018-02-08T16:05:10.099Z,98638.72
2018-02-08T16:07:40.381Z,98636.50
2018-02-08T16:10:12.164Z,98634.97
2018-02-08T16:12:44.460Z,98636.39
2018-02-08T16:15:15.290Z,98636.48
2018-02-08T16:17:47.029Z,98642.16
2018-02-08T16:20:18.618Z,98641.30
2018-02-08T16:22:48.570Z,98643.30
2018-02-08T16:25:18.625Z,98643.58
2018-02-08T16:27:48.594Z,98649.81
2018-02-08T16:30:18.420Z,98644.67
2018-02-08T16:32:48.341Z,98641.06
2018-02-08T16:35:18.383Z,98643.02
2018-02-08T16:37:48.200Z,98646.20
2018-02-08T16:40:18.213Z,98642.58
2018-02-08T16:42:47.812Z,98645.23
2018-02-08T16:45:17.861Z,98654.38
2018-02-08T16:47:47.711Z,98653.23
2018-02-08T16:50:18.197Z,98654.18
2018-02-08T16:52:48.074Z,98650.70
2018-02-08T16:55:17.975Z,98655.16
2018-02-08T16:57:48.179Z,98659.66
2018-02-08T17:00:18.004Z,98654.23
2018-02-08T17:02:47.922Z,98649.55
2018-02-08T17:05:17.951Z,98659.87
2018-02-08T17:07:47.894Z,98657.75
2018-02-08T17:10:21.370Z,98662.94
2018-02-08T17:12:51.661Z,98662.88
2018-02-08T17:15:21.637Z,98661.97
2018-02-08T17:17:51.509Z,98664.62
2018-02-08T17:20:21.317Z,98669.04
2018-02-08T17:22:51.180Z,98678.33
2018-02-08T17:25:21.136Z,98683.17
2018-02-08T17:27:51.419Z,98679.56
2018-02-08T17:30:21.242Z,98678.16
2018-02-08T17:32:51.135Z,98680.19
2018-02-08T17:35:21.027Z,98681.52
2018-02-08T17:37:50.963Z,98681.46
2018-02-08T17:40:24.061Z,98687.18
2018-02-08T17:42:53.595Z,98689.86
2018-02-08T17:45:23.404Z,98688.56
2018-02-08T17:47:53.525Z,98693.62
2018-02-08T17:50:23.419Z,98685.38
2018-02-08T17:52:53.207Z,98694.48
2018-02-08T17:55:23.015Z,98695.72
2018-02-08T17:57:52.875Z,98692.03
2018-02-08T18:00:23.643Z,98695.82
2018-02-08T18:02:53.586Z,98701.98
2018-02-08T18:05:23.496Z,98698.45
2018-02-08T18:07:57.297Z,98703.14
2018-02-08T18:10:27.308Z,98698.02
2018-02-08T18:12:57.357Z,98698.63
2018-02-08T18:15:27.527Z,98694.91
2018-02-08T18:17:57.464Z,98696.42
2018-02-08T18:20:27.489Z,98692.19
2018-02-08T18:22:57.339Z,98699.58
2018-02-08T18:25:27.244Z,98702.18
2018-02-08T18:27:56.836Z,98698.05
2018-02-08T18:30:26.649Z,98701.55
2018-02-08T18:32:56.541Z,98705.72
2018-02-08T18:35:27.439Z,98703.02
2018-02-08T18:37:57.699Z,98707.21
2018-02-08T18:40:27.564Z,98704.57
2018-02-08T18:42:57.675Z,98707.53
2018-02-08T18:45:27.911Z,98707.95
2018-02-08T18:47:57.919Z,98713.03
2018-02-08T18:50:27.809Z,98716.73
2018-02-08T18:52:58.643Z,98713.55
2018-02-08T18:55:28.719Z,98711.34
2018-02-08T18:57:58.805Z,98716.65
2018-02-08T19:00:28.661Z,98716.30
2018-02-08T19:02:58.569Z,98719.89
2018-02-08T19:05:30.332Z,98710.66
2018-02-08T19:08:00.278Z,98716.69
2018-02-08T19:10:30.123Z,98706.52
2018-02-08T19:13:00.255Z,98720.01
2018-02-08T19:15:30.122Z,98714.63
2018-02-08T19:18:00.018Z,98714.01
2018-02-08T19:20:30.492Z,98711.20
2018-02-08T19:23:01.802Z,98720.52
2018-02-08T19:25:33.476Z,98717.81
2018-02-08T19:28:03.423Z,98720.20
2018-02-08T19:30:33.343Z,98719.27
2018-02-08T19:33:03.687Z,98713.89
2018-02-08T19:35:34.395Z,98715.47
2018-02-08T19:38:04.306Z,98717.20
2018-02-08T19:40:34.214Z,98720.06
2018-02-08T19:43:04.802Z,98719.77
2018-02-08T19:45:38.127Z,98716.00
2018-02-08T19:48:08.268Z,98712.94
2018-02-08T19:50:38.163Z,98715.44
2018-02-08T19:53:08.139Z,98713.41
2018-02-08T19:55:37.693Z,98713.00
2018-02-08T19:58:07.720Z,98711.98
2018-02-08T20:00:37.858Z,98712.81
2018-02-08T20:03:08.103Z,98705.61
2018-02-08T20:05:38.385Z,98707.84
2018-02-08T20:08:08.506Z,98703.80
2018-02-08T20:10:38.606Z,98700.87
2018-02-08T20:13:08.655Z,98704.34
2018-02-08T20:15:38.941Z,98710.12
2018-02-08T20:18:09.020Z,98706.72
2018-02-08T20:20:39.059Z,98708.34
2018-02-08T20:23:09.953Z,98711.37
2018-02-08T20:25:43.010Z,98711.82
2018-02-08T20:28:12.962Z,98713.91
2018-02-08T20:30:49.260Z,98705.99
2018-02-08T20:33:23.092Z,98714.98
2018-02-08T20:35:53.208Z,98709.02
2018-02-08T20:38:24.510Z,98708.81
2018-02-08T20:40:54.848Z,98710.97
2018-02-08T20:43:33.944Z,98706.74
2018-02-08T20:46:03.924Z,98705.37
2018-02-08T20:48:33.723Z,98697.89
2018-02-08T20:51:03.752Z,98715.99
2018-02-08T20:53:33.788Z,98717.03
2018-02-08T20:56:03.887Z,98711.23
2018-02-08T20:58:33.856Z,98715.13
2018-02-08T21:01:03.916Z,98713.97
2018-02-08T21:03:33.912Z,98712.92
2018-02-08T21:06:04.223Z,98703.78
2018-02-08T21:08:34.411Z,98711.06
2018-02-08T21:11:04.496Z,98708.71
2018-02-08T21:13:34.646Z,98705.39
2018-02-08T21:16:04.789Z,98703.23
2018-02-08T21:18:34.954Z,98713.09
2018-02-08T21:21:04.974Z,98707.30
2018-02-08T21:23:34.861Z,98709.73
2018-02-08T21:26:04.876Z,98702.12
2018-02-08T21:28:34.727Z,98700.96
2018-02-08T21:31:04.566Z,98699.14
2018-02-08T21:33:34.368Z,98705.93
2018-02-08T21:36:04.214Z,98708.17
2018-02-08T21:38:33.747Z,98708.13
2018-02-08T21:41:03.786Z,98707.09
2018-02-08T21:43:33.684Z,98713.22
2018-02-08T21:46:03.520Z,98703.45
2018-02-08T21:48:33.001Z,98702.87
2018-02-08T21:51:02.867Z,98699.18
2018-02-08T21:53:32.479Z,98700.80
2018-02-08T21:56:02.326Z,98699.89
2018-02-08T21:58:32.118Z,98695.29
2018-02-08T22:01:01.950Z,98697.24
2018-02-08T22:03:31.798Z,98691.27
2018-02-08T22:06:01.649Z,98698.31
2018-02-08T22:08:31.474Z,98690.77
2018-02-08T22:11:01.355Z,98700.39
2018-02-08T22:13:31.342Z,98698.31
2018-02-08T22:16:01.323Z,98693.52
2018-02-08T22:18:31.256Z,98697.74
2018-02-08T22:21:01.845Z,98699.52
2018-02-08T22:23:31.743Z,98695.45
2018-02-08T22:26:01.865Z,98702.29
2018-02-08T22:28:31.914Z,98701.38
2018-02-08T22:31:01.778Z,98711.61
2018-02-08T22:33:31.648Z,98711.11
2018-02-08T22:36:01.558Z,98711.36
2018-02-08T22:38:31.751Z,98708.34
2018-02-08T22:41:01.590Z,98700.01
2018-02-08T22:43:32.201Z,98706.22
2018-02-08T22:46:02.060Z,98704.73
2018-02-08T22:48:32.183Z,98709.86
2018-02-08T22:51:03.045Z,98702.00
2018-02-08T22:53:32.975Z,98706.89
2018-02-08T22:56:02.991Z,98713.22
2018-02-08T22:58:32.952Z,98706.97
2018-02-08T23:01:02.692Z,98706.67
2018-02-08T23:03:32.496Z,98706.52
2018-02-08T23:06:02.545Z,98698.84
2018-02-08T23:08:32.412Z,98701.05
2018-02-08T23:11:02.501Z,98701.28
2018-02-08T23:13:32.369Z,98699.95
2018-02-08T23:16:02.222Z,98704.73
2018-02-08T23:18:32.077Z,98699.43
2018-02-08T23:21:01.897Z,98705.56
2018-02-08T23:23:33.939Z,98709.77
2018-02-08T23:26:04.175Z,98705.72
2018-02-08T23:28:34.230Z,98707.91
2018-02-08T23:31:04.178Z,98709.80
2018-02-08T23:33:34.056Z,98703.63
2018-02-08T23:36:03.907Z,98701.44
2018-02-08T23:38:33.760Z,98697.59
2018-02-08T23:41:05.666Z,98692.48
2018-02-08T23:43:38.669Z,98694.69
2018-02-08T23:46:09.049Z,98699.98
2018-02-08T23:48:38.976Z,98695.51
2018-02-08T23:51:08.840Z,98703.30
2018-02-08T23:53:38.676Z,98700.92
2018-02-08T23:56:08.532Z,98697.85
2018-02-08T23:58:38.399Z,98698.72
